sensor_id;sensor_type;location;lat;lon;timestamp;P1;durP1;ratioP1;P2;durP2;ratioP2
25567;SDS011;13455;51.480;7.594;2023-03-14T00:02:19;4.90;;;1.40;;
25567;SDS011;13455;51.480;7.594;2023-03-14T00:04:45;6.57;;;1.50;;
25567;SDS011;13455;51.480;7.594;2023-03-14T00:07:11;6.60;;;1.50;;
25567;SDS011;13455;51.480;7.594;2023-03-14T00:09:37;5.13;;;1.63;;
25567;SDS011;13455;51.480;7.594;2023-03-14T00:12:03;8.40;;;1.53;;
25567;SDS011;13455;51.480;7.594;2023-03-14T00:14:29;7.60;;;1.63;;
25567;SDS011;13455;51.480;7.594;2023-03-14T00:16:56;5.95;;;1.30;;
25567;SDS011;13455;51.480;7.594;2023-03-14T00:19:22;7.37;;;1.43;;
25567;SDS011;13455;51.480;7.594;2023-03-14T00:21:47;9.13;;;1.63;;
25567;SDS011;13455;51.480;7.594;2023-03-14T00:24:13;7.87;;;1.57;;
25567;SDS011;13455;51.480;7.594;2023-03-14T00:26:38;6.30;;;1.50;;
25567;SDS011;13455;51.480;7.594;2023-03-14T00:29:04;7.13;;;1.40;;
25567;SDS011;13455;51.480;7.594;2023-03-14T00:31:30;7.68;;;1.52;;
25567;SDS011;13455;51.480;7.594;2023-03-14T00:33:56;7.63;;;1.40;;
25567;SDS011;13455;51.480;7.594;2023-03-14T00:36:22;6.20;;;1.50;;
25567;SDS011;13455;51.480;7.594;2023-03-14T00:38:49;6.20;;;1.40;;
25567;SDS011;13455;51.480;7.594;2023-03-14T00:41:17;4.03;;;1.20;;
25567;SDS011;13455;51.480;7.594;2023-03-14T00:43:44;5.60;;;1.40;;
25567;SDS011;13455;51.480;7.594;2023-03-14T00:46:10;6.35;;;1.42;;
25567;SDS011;13455;51.480;7.594;2023-03-14T00:48:37;6.10;;;1.20;;
25567;SDS011;13455;51.480;7.594;2023-03-14T00:51:03;5.43;;;1.30;;
25567;SDS011;13455;51.480;7.594;2023-03-14T00:53:30;7.20;;;1.40;;
25567;SDS011;13455;51.480;7.594;2023-03-14T00:55:56;5.65;;;1.30;;
25567;SDS011;13455;51.480;7.594;2023-03-14T00:58:21;5.82;;;1.30;;
25567;SDS011;13455;51.480;7.594;2023-03-14T01:00:47;6.93;;;1.42;;
25567;SDS011;13455;51.480;7.594;2023-03-14T01:03:13;5.13;;;1.33;;
25567;SDS011;13455;51.480;7.594;2023-03-14T01:05:39;9.40;;;1.88;;
25567;SDS011;13455;51.480;7.594;2023-03-14T01:08:06;6.45;;;1.55;;
25567;SDS011;13455;51.480;7.594;2023-03-14T01:10:32;5.05;;;1.27;;
25567;SDS011;13455;51.480;7.594;2023-03-14T01:12:58;7.50;;;1.47;;
25567;SDS011;13455;51.480;7.594;2023-03-14T01:15:24;4.27;;;1.27;;
25567;SDS011;13455;51.480;7.594;2023-03-14T01:17:49;8.10;;;1.40;;
25567;SDS011;13455;51.480;7.594;2023-03-14T01:20:15;4.67;;;1.23;;
25567;SDS011;13455;51.480;7.594;2023-03-14T01:22:42;6.25;;;1.40;;
25567;SDS011;13455;51.480;7.594;2023-03-14T01:25:09;8.38;;;1.42;;
25567;SDS011;13455;51.480;7.594;2023-03-14T01:27:39;8.18;;;1.55;;
25567;SDS011;13455;51.480;7.594;2023-03-14T01:30:05;8.47;;;1.60;;
25567;SDS011;13455;51.480;7.594;2023-03-14T01:32:34;6.50;;;1.50;;
25567;SDS011;13455;51.480;7.594;2023-03-14T01:35:00;4.40;;;1.20;;
25567;SDS011;13455;51.480;7.594;2023-03-14T01:37:29;5.18;;;1.38;;
25567;SDS011;13455;51.480;7.594;2023-03-14T01:39:56;5.60;;;1.20;;
25567;SDS011;13455;51.480;7.594;2023-03-14T01:42:35;3.72;;;0.80;;
25567;SDS011;13455;51.480;7.594;2023-03-14T01:45:05;4.80;;;0.90;;
25567;SDS011;13455;51.480;7.594;2023-03-14T01:47:51;4.32;;;0.85;;
25567;SDS011;13455;51.480;7.594;2023-03-14T01:50:17;5.60;;;1.10;;
25567;SDS011;13455;51.480;7.594;2023-03-14T01:52:44;6.38;;;1.00;;
25567;SDS011;13455;51.480;7.594;2023-03-14T01:55:14;4.18;;;0.90;;
25567;SDS011;13455;51.480;7.594;2023-03-14T01:57:49;4.03;;;0.80;;
25567;SDS011;13455;51.480;7.594;2023-03-14T02:00:22;3.38;;;1.10;;
25567;SDS011;13455;51.480;7.594;2023-03-14T02:02:49;3.80;;;1.10;;
25567;SDS011;13455;51.480;7.594;2023-03-14T02:05:17;3.80;;;1.00;;
25567;SDS011;13455;51.480;7.594;2023-03-14T02:07:49;5.97;;;1.02;;
25567;SDS011;13455;51.480;7.594;2023-03-14T02:10:16;4.68;;;1.20;;
25567;SDS011;13455;51.480;7.594;2023-03-14T02:12:44;5.10;;;1.10;;
25567;SDS011;13455;51.480;7.594;2023-03-14T02:15:10;4.78;;;0.98;;
25567;SDS011;13455;51.480;7.594;2023-03-14T02:17:36;5.53;;;1.05;;
25567;SDS011;13455;51.480;7.594;2023-03-14T02:22:45;4.85;;;1.30;;
25567;SDS011;13455;51.480;7.594;2023-03-14T02:25:14;4.50;;;1.00;;
25567;SDS011;13455;51.480;7.594;2023-03-14T02:27:41;5.45;;;1.30;;
25567;SDS011;13455;51.480;7.594;2023-03-14T02:30:11;6.55;;;1.20;;
25567;SDS011;13455;51.480;7.594;2023-03-14T02:32:39;5.87;;;0.93;;
25567;SDS011;13455;51.480;7.594;2023-03-14T02:35:09;5.47;;;1.10;;
25567;SDS011;13455;51.480;7.594;2023-03-14T02:37:38;5.23;;;1.07;;
25567;SDS011;13455;51.480;7.594;2023-03-14T02:40:06;5.28;;;1.10;;
25567;SDS011;13455;51.480;7.594;2023-03-14T02:42:32;5.43;;;0.90;;
25567;SDS011;13455;51.480;7.594;2023-03-14T02:47:34;7.07;;;1.20;;
25567;SDS011;13455;51.480;7.594;2023-03-14T02:50:08;5.93;;;1.25;;
25567;SDS011;13455;51.480;7.594;2023-03-14T02:52:35;6.95;;;1.30;;
25567;SDS011;13455;51.480;7.594;2023-03-14T02:55:01;7.10;;;1.40;;
25567;SDS011;13455;51.480;7.594;2023-03-14T02:57:27;7.85;;;1.67;;
25567;SDS011;13455;51.480;7.594;2023-03-14T02:59:53;10.30;;;1.63;;
25567;SDS011;13455;51.480;7.594;2023-03-14T03:02:19;9.90;;;1.60;;
25567;SDS011;13455;51.480;7.594;2023-03-14T03:04:45;9.30;;;1.60;;
25567;SDS011;13455;51.480;7.594;2023-03-14T03:07:11;7.38;;;1.60;;
25567;SDS011;13455;51.480;7.594;2023-03-14T03:09:37;7.68;;;1.60;;
25567;SDS011;13455;51.480;7.594;2023-03-14T03:12:03;10.45;;;1.67;;
25567;SDS011;13455;51.480;7.594;2023-03-14T03:14:29;9.27;;;1.40;;
25567;SDS011;13455;51.480;7.594;2023-03-14T03:16:55;6.57;;;1.30;;
25567;SDS011;13455;51.480;7.594;2023-03-14T03:19:21;6.15;;;1.33;;
25567;SDS011;13455;51.480;7.594;2023-03-14T03:21:47;5.60;;;1.20;;
25567;SDS011;13455;51.480;7.594;2023-03-14T03:24:13;6.32;;;1.35;;
25567;SDS011;13455;51.480;7.594;2023-03-14T03:26:39;7.47;;;1.30;;
25567;SDS011;13455;51.480;7.594;2023-03-14T03:29:05;6.93;;;1.23;;
25567;SDS011;13455;51.480;7.594;2023-03-14T03:31:31;7.53;;;1.20;;
25567;SDS011;13455;51.480;7.594;2023-03-14T03:33:57;6.03;;;1.45;;
25567;SDS011;13455;51.480;7.594;2023-03-14T03:36:24;5.27;;;1.13;;
25567;SDS011;13455;51.480;7.594;2023-03-14T03:38:50;6.10;;;1.20;;
25567;SDS011;13455;51.480;7.594;2023-03-14T03:41:16;5.30;;;1.17;;
25567;SDS011;13455;51.480;7.594;2023-03-14T03:43:42;7.17;;;1.37;;
25567;SDS011;13455;51.480;7.594;2023-03-14T03:46:08;5.40;;;0.98;;
25567;SDS011;13455;51.480;7.594;2023-03-14T03:48:34;5.97;;;1.17;;
25567;SDS011;13455;51.480;7.594;2023-03-14T03:51:00;8.73;;;1.38;;
25567;SDS011;13455;51.480;7.594;2023-03-14T03:53:27;8.55;;;1.50;;
25567;SDS011;13455;51.480;7.594;2023-03-14T03:55:53;6.10;;;1.30;;
25567;SDS011;13455;51.480;7.594;2023-03-14T03:58:19;6.82;;;1.38;;
25567;SDS011;13455;51.480;7.594;2023-03-14T04:00:45;6.28;;;1.60;;
25567;SDS011;13455;51.480;7.594;2023-03-14T04:03:11;9.18;;;1.60;;
25567;SDS011;13455;51.480;7.594;2023-03-14T04:05:37;8.73;;;1.45;;
25567;SDS011;13455;51.480;7.594;2023-03-14T04:08:03;6.43;;;1.30;;
25567;SDS011;13455;51.480;7.594;2023-03-14T04:10:29;5.72;;;1.17;;
25567;SDS011;13455;51.480;7.594;2023-03-14T04:12:55;8.55;;;1.35;;
25567;SDS011;13455;51.480;7.594;2023-03-14T04:15:21;6.63;;;1.20;;
25567;SDS011;13455;51.480;7.594;2023-03-14T04:17:47;7.53;;;1.40;;
25567;SDS011;13455;51.480;7.594;2023-03-14T04:20:13;6.45;;;1.35;;
25567;SDS011;13455;51.480;7.594;2023-03-14T04:22:39;6.82;;;1.20;;
25567;SDS011;13455;51.480;7.594;2023-03-14T04:25:06;6.80;;;1.03;;
25567;SDS011;13455;51.480;7.594;2023-03-14T04:27:32;4.18;;;1.00;;
25567;SDS011;13455;51.480;7.594;2023-03-14T04:29:58;5.37;;;0.80;;
25567;SDS011;13455;51.480;7.594;2023-03-14T04:32:24;7.85;;;0.85;;
25567;SDS011;13455;51.480;7.594;2023-03-14T04:34:50;4.60;;;0.90;;
25567;SDS011;13455;51.480;7.594;2023-03-14T04:37:16;5.53;;;0.90;;
25567;SDS011;13455;51.480;7.594;2023-03-14T04:39:42;3.40;;;0.70;;
25567;SDS011;13455;51.480;7.594;2023-03-14T04:42:08;3.43;;;0.70;;
25567;SDS011;13455;51.480;7.594;2023-03-14T04:44:34;4.25;;;0.80;;
25567;SDS011;13455;51.480;7.594;2023-03-14T04:47:00;2.60;;;0.85;;
25567;SDS011;13455;51.480;7.594;2023-03-14T04:49:26;3.17;;;0.80;;
25567;SDS011;13455;51.480;7.594;2023-03-14T04:51:54;5.77;;;0.90;;
25567;SDS011;13455;51.480;7.594;2023-03-14T04:54:20;5.22;;;1.10;;
25567;SDS011;13455;51.480;7.594;2023-03-14T04:56:46;5.05;;;1.08;;
25567;SDS011;13455;51.480;7.594;2023-03-14T04:59:12;4.97;;;1.20;;
25567;SDS011;13455;51.480;7.594;2023-03-14T05:01:38;5.68;;;1.33;;
25567;SDS011;13455;51.480;7.594;2023-03-14T05:04:06;5.53;;;1.30;;
25567;SDS011;13455;51.480;7.594;2023-03-14T05:06:34;5.70;;;1.27;;
25567;SDS011;13455;51.480;7.594;2023-03-14T05:09:00;4.82;;;1.30;;
25567;SDS011;13455;51.480;7.594;2023-03-14T05:11:27;5.22;;;1.30;;
25567;SDS011;13455;51.480;7.594;2023-03-14T05:13:53;6.75;;;1.75;;
25567;SDS011;13455;51.480;7.594;2023-03-14T05:16:19;7.93;;;1.60;;
25567;SDS011;13455;51.480;7.594;2023-03-14T05:18:45;6.50;;;1.50;;
25567;SDS011;13455;51.480;7.594;2023-03-14T05:21:11;5.00;;;1.50;;
25567;SDS011;13455;51.480;7.594;2023-03-14T05:23:37;10.50;;;1.80;;
25567;SDS011;13455;51.480;7.594;2023-03-14T05:26:03;8.10;;;1.90;;
25567;SDS011;13455;51.480;7.594;2023-03-14T05:28:29;6.57;;;1.90;;
25567;SDS011;13455;51.480;7.594;2023-03-14T05:30:55;8.98;;;2.00;;
25567;SDS011;13455;51.480;7.594;2023-03-14T05:33:21;8.37;;;1.90;;
25567;SDS011;13455;51.480;7.594;2023-03-14T05:35:47;10.70;;;1.88;;
25567;SDS011;13455;51.480;7.594;2023-03-14T05:38:13;7.20;;;1.90;;
25567;SDS011;13455;51.480;7.594;2023-03-14T05:40:39;7.60;;;1.70;;
25567;SDS011;13455;51.480;7.594;2023-03-14T05:43:05;7.88;;;1.70;;
25567;SDS011;13455;51.480;7.594;2023-03-14T05:45:33;8.07;;;1.77;;
25567;SDS011;13455;51.480;7.594;2023-03-14T05:47:59;7.25;;;1.80;;
25567;SDS011;13455;51.480;7.594;2023-03-14T05:50:25;9.30;;;1.70;;
25567;SDS011;13455;51.480;7.594;2023-03-14T05:52:52;6.30;;;1.50;;
25567;SDS011;13455;51.480;7.594;2023-03-14T05:55:18;6.00;;;1.38;;
25567;SDS011;13455;51.480;7.594;2023-03-14T05:57:44;5.67;;;1.40;;
25567;SDS011;13455;51.480;7.594;2023-03-14T06:00:10;5.70;;;1.70;;
25567;SDS011;13455;51.480;7.594;2023-03-14T06:02:36;6.13;;;1.50;;
25567;SDS011;13455;51.480;7.594;2023-03-14T06:05:04;5.97;;;1.23;;
25567;SDS011;13455;51.480;7.594;2023-03-14T06:07:30;6.75;;;1.40;;
25567;SDS011;13455;51.480;7.594;2023-03-14T06:09:56;6.47;;;1.38;;
25567;SDS011;13455;51.480;7.594;2023-03-14T06:12:23;5.75;;;1.40;;
25567;SDS011;13455;51.480;7.594;2023-03-14T06:14:49;6.47;;;1.23;;
25567;SDS011;13455;51.480;7.594;2023-03-14T06:17:15;6.00;;;1.20;;
25567;SDS011;13455;51.480;7.594;2023-03-14T06:19:41;5.72;;;1.50;;
25567;SDS011;13455;51.480;7.594;2023-03-14T06:22:07;5.33;;;1.40;;
25567;SDS011;13455;51.480;7.594;2023-03-14T06:24:33;5.25;;;1.25;;
25567;SDS011;13455;51.480;7.594;2023-03-14T06:26:59;5.50;;;1.20;;
25567;SDS011;13455;51.480;7.594;2023-03-14T06:29:27;4.90;;;1.48;;
25567;SDS011;13455;51.480;7.594;2023-03-14T06:31:53;5.57;;;1.42;;
25567;SDS011;13455;51.480;7.594;2023-03-14T06:34:19;4.87;;;1.50;;
25567;SDS011;13455;51.480;7.594;2023-03-14T06:36:45;5.32;;;1.50;;
25567;SDS011;13455;51.480;7.594;2023-03-14T06:39:11;5.10;;;1.77;;
25567;SDS011;13455;51.480;7.594;2023-03-14T06:41:37;6.68;;;1.83;;
25567;SDS011;13455;51.480;7.594;2023-03-14T06:44:03;5.43;;;1.55;;
25567;SDS011;13455;51.480;7.594;2023-03-14T06:46:30;5.43;;;1.30;;
25567;SDS011;13455;51.480;7.594;2023-03-14T06:48:56;4.60;;;1.02;;
25567;SDS011;13455;51.480;7.594;2023-03-14T06:51:22;3.42;;;1.05;;
25567;SDS011;13455;51.480;7.594;2023-03-14T06:53:48;2.65;;;0.82;;
25567;SDS011;13455;51.480;7.594;2023-03-14T06:56:14;2.10;;;0.70;;
25567;SDS011;13455;51.480;7.594;2023-03-14T06:58:40;2.47;;;0.70;;
25567;SDS011;13455;51.480;7.594;2023-03-14T07:01:11;3.63;;;0.70;;
25567;SDS011;13455;51.480;7.594;2023-03-14T07:03:43;2.33;;;0.60;;
25567;SDS011;13455;51.480;7.594;2023-03-14T07:06:09;2.85;;;0.80;;
25567;SDS011;13455;51.480;7.594;2023-03-14T07:08:35;1.85;;;0.57;;
25567;SDS011;13455;51.480;7.594;2023-03-14T07:11:01;2.65;;;0.60;;
25567;SDS011;13455;51.480;7.594;2023-03-14T07:13:27;1.75;;;0.50;;
25567;SDS011;13455;51.480;7.594;2023-03-14T07:15:53;2.42;;;0.70;;
25567;SDS011;13455;51.480;7.594;2023-03-14T07:18:19;3.30;;;0.80;;
25567;SDS011;13455;51.480;7.594;2023-03-14T07:20:45;2.67;;;0.70;;
25567;SDS011;13455;51.480;7.594;2023-03-14T07:23:11;5.30;;;0.80;;
25567;SDS011;13455;51.480;7.594;2023-03-14T07:25:37;2.42;;;0.70;;
25567;SDS011;13455;51.480;7.594;2023-03-14T07:28:04;2.75;;;0.50;;
25567;SDS011;13455;51.480;7.594;2023-03-14T07:30:30;2.58;;;1.10;;
25567;SDS011;13455;51.480;7.594;2023-03-14T07:32:56;4.03;;;0.90;;
25567;SDS011;13455;51.480;7.594;2023-03-14T07:35:22;2.00;;;0.80;;
25567;SDS011;13455;51.480;7.594;2023-03-14T07:37:48;3.10;;;0.85;;
25567;SDS011;13455;51.480;7.594;2023-03-14T07:40:14;3.45;;;0.95;;
25567;SDS011;13455;51.480;7.594;2023-03-14T07:42:41;2.63;;;1.13;;
25567;SDS011;13455;51.480;7.594;2023-03-14T07:45:08;3.63;;;1.33;;
25567;SDS011;13455;51.480;7.594;2023-03-14T07:47:36;5.82;;;1.80;;
25567;SDS011;13455;51.480;7.594;2023-03-14T07:50:03;4.03;;;1.47;;
25567;SDS011;13455;51.480;7.594;2023-03-14T07:52:32;2.90;;;1.30;;
25567;SDS011;13455;51.480;7.594;2023-03-14T07:54:58;2.42;;;1.00;;
25567;SDS011;13455;51.480;7.594;2023-03-14T07:57:24;4.57;;;1.80;;
25567;SDS011;13455;51.480;7.594;2023-03-14T07:59:50;3.45;;;1.42;;
25567;SDS011;13455;51.480;7.594;2023-03-14T08:02:16;2.00;;;1.00;;
25567;SDS011;13455;51.480;7.594;2023-03-14T08:04:45;2.15;;;1.00;;
25567;SDS011;13455;51.480;7.594;2023-03-14T08:07:11;2.53;;;0.90;;
25567;SDS011;13455;51.480;7.594;2023-03-14T08:09:37;3.60;;;1.10;;
25567;SDS011;13455;51.480;7.594;2023-03-14T08:12:05;2.88;;;0.93;;
25567;SDS011;13455;51.480;7.594;2023-03-14T08:14:31;4.93;;;1.00;;
25567;SDS011;13455;51.480;7.594;2023-03-14T08:17:00;2.75;;;1.00;;
25567;SDS011;13455;51.480;7.594;2023-03-14T08:19:26;2.80;;;1.10;;
25567;SDS011;13455;51.480;7.594;2023-03-14T08:21:52;5.18;;;1.58;;
25567;SDS011;13455;51.480;7.594;2023-03-14T08:24:22;2.30;;;1.40;;
25567;SDS011;13455;51.480;7.594;2023-03-14T08:26:47;2.80;;;1.20;;
25567;SDS011;13455;51.480;7.594;2023-03-14T08:29:13;2.60;;;1.27;;
25567;SDS011;13455;51.480;7.594;2023-03-14T08:31:38;4.27;;;1.80;;
25567;SDS011;13455;51.480;7.594;2023-03-14T08:34:04;1.93;;;1.30;;
25567;SDS011;13455;51.480;7.594;2023-03-14T08:36:31;3.55;;;1.35;;
25567;SDS011;13455;51.480;7.594;2023-03-14T08:38:57;3.63;;;1.30;;
25567;SDS011;13455;51.480;7.594;2023-03-14T08:41:23;2.97;;;1.45;;
25567;SDS011;13455;51.480;7.594;2023-03-14T08:43:48;3.50;;;1.70;;
25567;SDS011;13455;51.480;7.594;2023-03-14T08:46:17;3.78;;;1.90;;
25567;SDS011;13455;51.480;7.594;2023-03-14T08:48:42;4.78;;;2.00;;
25567;SDS011;13455;51.480;7.594;2023-03-14T08:51:09;3.77;;;1.83;;
25567;SDS011;13455;51.480;7.594;2023-03-14T08:53:37;3.28;;;1.80;;
25567;SDS011;13455;51.480;7.594;2023-03-14T08:56:03;3.08;;;1.50;;
25567;SDS011;13455;51.480;7.594;2023-03-14T08:58:32;2.40;;;1.50;;
25567;SDS011;13455;51.480;7.594;2023-03-14T09:00:58;3.07;;;1.40;;
25567;SDS011;13455;51.480;7.594;2023-03-14T09:03:24;3.70;;;1.70;;
25567;SDS011;13455;51.480;7.594;2023-03-14T09:05:51;3.07;;;1.60;;
25567;SDS011;13455;51.480;7.594;2023-03-14T09:08:17;2.50;;;1.50;;
25567;SDS011;13455;51.480;7.594;2023-03-14T09:10:43;4.10;;;2.10;;
25567;SDS011;13455;51.480;7.594;2023-03-14T09:13:11;4.47;;;1.40;;
25567;SDS011;13455;51.480;7.594;2023-03-14T09:15:37;4.45;;;1.83;;
25567;SDS011;13455;51.480;7.594;2023-03-14T09:18:03;2.17;;;1.60;;
25567;SDS011;13455;51.480;7.594;2023-03-14T09:20:30;2.28;;;1.50;;
25567;SDS011;13455;51.480;7.594;2023-03-14T09:22:58;2.30;;;1.50;;
25567;SDS011;13455;51.480;7.594;2023-03-14T09:25:24;3.05;;;1.60;;
25567;SDS011;13455;51.480;7.594;2023-03-14T09:27:50;4.63;;;2.10;;
25567;SDS011;13455;51.480;7.594;2023-03-14T09:30:18;4.05;;;2.15;;
25567;SDS011;13455;51.480;7.594;2023-03-14T09:32:44;2.78;;;1.50;;
25567;SDS011;13455;51.480;7.594;2023-03-14T09:35:18;2.10;;;1.30;;
25567;SDS011;13455;51.480;7.594;2023-03-14T09:37:44;4.35;;;1.23;;
25567;SDS011;13455;51.480;7.594;2023-03-14T09:40:12;3.40;;;1.15;;
25567;SDS011;13455;51.480;7.594;2023-03-14T09:42:40;2.10;;;1.20;;
25567;SDS011;13455;51.480;7.594;2023-03-14T09:45:12;2.50;;;1.20;;
25567;SDS011;13455;51.480;7.594;2023-03-14T09:48:00;2.22;;;1.00;;
25567;SDS011;13455;51.480;7.594;2023-03-14T09:50:59;1.60;;;0.80;;
25567;SDS011;13455;51.480;7.594;2023-03-14T09:53:44;1.30;;;0.70;;
25567;SDS011;13455;51.480;7.594;2023-03-14T09:59:17;0.93;;;0.50;;
25567;SDS011;13455;51.480;7.594;2023-03-14T10:01:44;1.05;;;0.40;;
25567;SDS011;13455;51.480;7.594;2023-03-14T10:04:10;1.45;;;0.60;;
25567;SDS011;13455;51.480;7.594;2023-03-14T10:06:41;0.80;;;0.50;;
25567;SDS011;13455;51.480;7.594;2023-03-14T10:09:14;1.80;;;0.47;;
25567;SDS011;13455;51.480;7.594;2023-03-14T10:11:50;0.60;;;0.40;;
25567;SDS011;13455;51.480;7.594;2023-03-14T10:14:29;1.85;;;0.40;;
25567;SDS011;13455;51.480;7.594;2023-03-14T10:17:07;1.30;;;0.50;;
25567;SDS011;13455;51.480;7.594;2023-03-14T10:19:35;0.80;;;0.40;;
25567;SDS011;13455;51.480;7.594;2023-03-14T10:22:04;1.33;;;0.52;;
25567;SDS011;13455;51.480;7.594;2023-03-14T10:24:37;2.07;;;0.50;;
25567;SDS011;13455;51.480;7.594;2023-03-14T10:27:20;3.23;;;0.60;;
25567;SDS011;13455;51.480;7.594;2023-03-14T10:29:54;2.03;;;0.60;;
25567;SDS011;13455;51.480;7.594;2023-03-14T10:32:23;4.00;;;1.20;;
25567;SDS011;13455;51.480;7.594;2023-03-14T10:35:06;2.47;;;1.00;;
25567;SDS011;13455;51.480;7.594;2023-03-14T10:37:32;2.70;;;1.00;;
25567;SDS011;13455;51.480;7.594;2023-03-14T10:39:58;1.92;;;1.30;;
25567;SDS011;13455;51.480;7.594;2023-03-14T10:42:31;2.13;;;0.90;;
25567;SDS011;13455;51.480;7.594;2023-03-14T10:45:00;3.05;;;1.00;;
25567;SDS011;13455;51.480;7.594;2023-03-14T10:47:28;1.33;;;0.70;;
25567;SDS011;13455;51.480;7.594;2023-03-14T10:49:55;3.20;;;0.80;;
25567;SDS011;13455;51.480;7.594;2023-03-14T10:52:23;1.05;;;0.60;;
25567;SDS011;13455;51.480;7.594;2023-03-14T10:54:54;2.70;;;0.57;;
25567;SDS011;13455;51.480;7.594;2023-03-14T10:57:24;1.90;;;1.00;;
25567;SDS011;13455;51.480;7.594;2023-03-14T10:59:51;2.40;;;1.10;;
25567;SDS011;13455;51.480;7.594;2023-03-14T11:07:32;2.47;;;1.40;;
25567;SDS011;13455;51.480;7.594;2023-03-14T11:15:48;2.13;;;0.90;;
25567;SDS011;13455;51.480;7.594;2023-03-14T11:27:03;3.23;;;0.93;;
25567;SDS011;13455;51.480;7.594;2023-03-14T11:34:53;2.93;;;0.90;;
25567;SDS011;13455;51.480;7.594;2023-03-14T11:40:03;1.60;;;0.65;;
25567;SDS011;13455;51.480;7.594;2023-03-14T11:42:54;1.33;;;0.50;;
25567;SDS011;13455;51.480;7.594;2023-03-14T11:45:44;2.10;;;0.60;;
25567;SDS011;13455;51.480;7.594;2023-03-14T11:56:58;3.00;;;0.68;;
25567;SDS011;13455;51.480;7.594;2023-03-14T12:02:33;3.08;;;0.60;;
25567;SDS011;13455;51.480;7.594;2023-03-14T12:05:25;2.67;;;0.80;;
25567;SDS011;13455;51.480;7.594;2023-03-14T12:13:16;2.97;;;0.80;;
25567;SDS011;13455;51.480;7.594;2023-03-14T12:15:47;2.87;;;0.70;;
25567;SDS011;13455;51.480;7.594;2023-03-14T12:18:36;3.00;;;0.80;;
25567;SDS011;13455;51.480;7.594;2023-03-14T12:21:07;3.35;;;0.90;;
25567;SDS011;13455;51.480;7.594;2023-03-14T12:23:57;3.30;;;1.00;;
25567;SDS011;13455;51.480;7.594;2023-03-14T12:26:26;3.28;;;0.90;;
25567;SDS011;13455;51.480;7.594;2023-03-14T12:44:44;4.70;;;1.10;;
25567;SDS011;13455;51.480;7.594;2023-03-14T12:49:43;5.70;;;1.20;;
25567;SDS011;13455;51.480;7.594;2023-03-14T12:55:13;4.72;;;1.10;;
25567;SDS011;13455;51.480;7.594;2023-03-14T13:00:22;6.77;;;1.20;;
25567;SDS011;13455;51.480;7.594;2023-03-14T13:02:58;7.23;;;1.63;;
25567;SDS011;13455;51.480;7.594;2023-03-14T13:05:37;5.72;;;1.30;;
25567;SDS011;13455;51.480;7.594;2023-03-14T13:11:21;5.80;;;1.50;;
25567;SDS011;13455;51.480;7.594;2023-03-14T13:13:52;10.05;;;1.80;;
25567;SDS011;13455;51.480;7.594;2023-03-14T13:16:22;5.78;;;1.25;;
25567;SDS011;13455;51.480;7.594;2023-03-14T13:18:58;6.90;;;1.20;;
25567;SDS011;13455;51.480;7.594;2023-03-14T13:21:27;7.40;;;1.33;;
25567;SDS011;13455;51.480;7.594;2023-03-14T13:24:04;6.60;;;1.27;;
25567;SDS011;13455;51.480;7.594;2023-03-14T13:26:36;5.75;;;0.90;;
25567;SDS011;13455;51.480;7.594;2023-03-14T13:31:46;8.80;;;1.55;;
25567;SDS011;13455;51.480;7.594;2023-03-14T13:34:14;10.27;;;1.67;;
25567;SDS011;13455;51.480;7.594;2023-03-14T13:36:40;14.40;;;1.92;;
25567;SDS011;13455;51.480;7.594;2023-03-14T13:39:21;14.53;;;2.07;;
25567;SDS011;13455;51.480;7.594;2023-03-14T13:41:50;17.38;;;2.10;;
25567;SDS011;13455;51.480;7.594;2023-03-14T13:44:26;17.85;;;2.63;;
25567;SDS011;13455;51.480;7.594;2023-03-14T13:47:00;15.60;;;2.50;;
25567;SDS011;13455;51.480;7.594;2023-03-14T13:49:27;15.50;;;2.50;;
25567;SDS011;13455;51.480;7.594;2023-03-14T13:51:56;17.42;;;2.42;;
25567;SDS011;13455;51.480;7.594;2023-03-14T13:54:22;16.20;;;2.70;;
25567;SDS011;13455;51.480;7.594;2023-03-14T13:56:59;18.55;;;2.30;;
25567;SDS011;13455;51.480;7.594;2023-03-14T13:59:29;18.02;;;2.65;;
25567;SDS011;13455;51.480;7.594;2023-03-14T14:01:56;13.27;;;2.40;;
25567;SDS011;13455;51.480;7.594;2023-03-14T14:04:25;18.60;;;2.80;;
25567;SDS011;13455;51.480;7.594;2023-03-14T14:07:01;19.15;;;2.58;;
25567;SDS011;13455;51.480;7.594;2023-03-14T14:09:49;18.85;;;2.92;;
25567;SDS011;13455;51.480;7.594;2023-03-14T14:12:16;14.60;;;2.72;;
25567;SDS011;13455;51.480;7.594;2023-03-14T14:20:00;15.88;;;2.53;;
25567;SDS011;13455;51.480;7.594;2023-03-14T14:22:30;14.13;;;2.60;;
25567;SDS011;13455;51.480;7.594;2023-03-14T14:24:56;14.63;;;2.35;;
25567;SDS011;13455;51.480;7.594;2023-03-14T14:27:29;15.13;;;2.37;;
25567;SDS011;13455;51.480;7.594;2023-03-14T14:32:42;14.03;;;2.60;;
25567;SDS011;13455;51.480;7.594;2023-03-14T14:35:09;15.43;;;2.67;;
25567;SDS011;13455;51.480;7.594;2023-03-14T14:37:46;13.40;;;2.37;;
25567;SDS011;13455;51.480;7.594;2023-03-14T14:40:19;17.67;;;2.78;;
25567;SDS011;13455;51.480;7.594;2023-03-14T14:42:47;14.82;;;2.75;;
25567;SDS011;13455;51.480;7.594;2023-03-14T14:45:17;15.85;;;2.60;;
25567;SDS011;13455;51.480;7.594;2023-03-14T14:47:48;15.10;;;2.70;;
25567;SDS011;13455;51.480;7.594;2023-03-14T14:52:47;15.82;;;3.17;;
25567;SDS011;13455;51.480;7.594;2023-03-14T14:55:17;14.18;;;3.22;;
25567;SDS011;13455;51.480;7.594;2023-03-14T14:57:48;13.02;;;2.70;;
25567;SDS011;13455;51.480;7.594;2023-03-14T15:00:20;11.50;;;2.17;;
25567;SDS011;13455;51.480;7.594;2023-03-14T15:02:48;11.30;;;2.20;;
25567;SDS011;13455;51.480;7.594;2023-03-14T15:05:24;13.50;;;2.15;;
25567;SDS011;13455;51.480;7.594;2023-03-14T15:07:52;15.60;;;2.83;;
25567;SDS011;13455;51.480;7.594;2023-03-14T15:10:19;14.32;;;2.60;;
25567;SDS011;13455;51.480;7.594;2023-03-14T15:12:47;14.80;;;2.50;;
25567;SDS011;13455;51.480;7.594;2023-03-14T15:15:13;9.90;;;1.90;;
25567;SDS011;13455;51.480;7.594;2023-03-14T15:17:40;11.82;;;2.10;;
25567;SDS011;13455;51.480;7.594;2023-03-14T15:20:06;12.70;;;2.00;;
25567;SDS011;13455;51.480;7.594;2023-03-14T15:22:38;17.95;;;2.10;;
25567;SDS011;13455;51.480;7.594;2023-03-14T15:25:04;15.45;;;2.20;;
25567;SDS011;13455;51.480;7.594;2023-03-14T15:27:30;11.52;;;2.00;;
25567;SDS011;13455;51.480;7.594;2023-03-14T15:29:57;13.90;;;3.60;;
25567;SDS011;13455;51.480;7.594;2023-03-14T15:32:24;14.52;;;2.30;;
25567;SDS011;13455;51.480;7.594;2023-03-14T15:34:52;11.95;;;2.00;;
25567;SDS011;13455;51.480;7.594;2023-03-14T15:37:21;11.93;;;1.95;;
25567;SDS011;13455;51.480;7.594;2023-03-14T15:39:47;12.05;;;2.53;;
25567;SDS011;13455;51.480;7.594;2023-03-14T15:42:13;12.80;;;2.03;;
25567;SDS011;13455;51.480;7.594;2023-03-14T15:44:39;14.52;;;2.20;;
25567;SDS011;13455;51.480;7.594;2023-03-14T15:47:05;13.07;;;2.00;;
25567;SDS011;13455;51.480;7.594;2023-03-14T15:49:32;13.70;;;1.88;;
25567;SDS011;13455;51.480;7.594;2023-03-14T15:51:58;9.07;;;1.83;;
25567;SDS011;13455;51.480;7.594;2023-03-14T15:54:24;10.77;;;1.98;;
25567;SDS011;13455;51.480;7.594;2023-03-14T15:56:53;13.02;;;2.00;;
25567;SDS011;13455;51.480;7.594;2023-03-14T15:59:20;13.68;;;2.05;;
25567;SDS011;13455;51.480;7.594;2023-03-14T16:01:46;10.02;;;2.00;;
25567;SDS011;13455;51.480;7.594;2023-03-14T16:04:13;11.02;;;2.10;;
25567;SDS011;13455;51.480;7.594;2023-03-14T16:06:39;13.98;;;2.13;;
25567;SDS011;13455;51.480;7.594;2023-03-14T16:09:04;12.52;;;1.90;;
25567;SDS011;13455;51.480;7.594;2023-03-14T16:11:30;10.05;;;1.88;;
25567;SDS011;13455;51.480;7.594;2023-03-14T16:13:56;9.68;;;1.90;;
25567;SDS011;13455;51.480;7.594;2023-03-14T16:16:21;10.07;;;1.85;;
25567;SDS011;13455;51.480;7.594;2023-03-14T16:18:47;9.68;;;1.90;;
25567;SDS011;13455;51.480;7.594;2023-03-14T16:21:14;9.27;;;1.95;;
25567;SDS011;13455;51.480;7.594;2023-03-14T16:23:41;9.98;;;1.85;;
25567;SDS011;13455;51.480;7.594;2023-03-14T16:26:11;13.10;;;1.87;;